Terminal Aerodrome Forecast
Issued by NWS Charleston, WV

Current Version | Previous Version | Graphics & Text | Print | Product List | Glossary On
Versions: 1 2 3 4 5 6 7 8 9 10 11 12 13 14 15 16 17 18 19 20 21 22 23 24
000
FTUS41 KRLX 300913 AAA
TAFPKB
TAF AMD
KPKB 300913Z 3009/3106 00000KT P6SM BKN080
     FM301000 00000KT 6SM BR BKN040
     FM310500 00000KT 5SM BR BKN040=

USA.gov is the U.S. government's official web portal to all federal, state and local government web resources and services.